createdAt,value
2019-03-04T00:03:22.470Z,98716.33
2019-03-04T00:07:29.367Z,98713.08
2019-03-04T00:11:36.388Z,98727.72
2019-03-04T00:15:43.616Z,98712.66
2019-03-04T00:19:50.509Z,98711.30
2019-03-04T00:23:57.367Z,98700.73
2019-03-04T00:28:04.319Z,98702.59
2019-03-04T00:32:11.257Z,98695.78
2019-03-04T00:36:18.109Z,98683.06
2019-03-04T00:40:24.974Z,98667.81
2019-03-04T00:44:31.861Z,98675.24
2019-03-04T00:48:38.964Z,98677.38
2019-03-04T00:52:45.820Z,98682.28
2019-03-04T00:56:52.625Z,98666.66
2019-03-04T01:00:59.489Z,98661.20
2019-03-04T01:05:06.894Z,98667.92
2019-03-04T01:09:15.622Z,98670.18
2019-03-04T01:13:24.401Z,98650.02
2019-03-04T01:17:31.276Z,98656.37
2019-03-04T01:21:38.141Z,98649.73
2019-03-04T01:25:45.001Z,98644.63
2019-03-04T01:29:51.873Z,98624.20
2019-03-04T01:33:58.702Z,98629.02
2019-03-04T01:38:05.696Z,98619.79
2019-03-04T01:42:12.714Z,98608.99
2019-03-04T01:46:19.665Z,98601.61
2019-03-04T01:50:26.499Z,98589.98
2019-03-04T01:54:33.344Z,98577.60
2019-03-04T01:58:40.151Z,98567.37
2019-03-04T02:02:47.554Z,98562.94
2019-03-04T02:06:54.403Z,98567.92
2019-03-04T02:11:01.224Z,98557.03
2019-03-04T02:15:09.663Z,98553.20
2019-03-04T02:19:16.531Z,98553.67
2019-03-04T02:23:23.918Z,98551.16
2019-03-04T02:27:30.733Z,98536.13
2019-03-04T02:31:37.547Z,98521.31
2019-03-04T02:35:44.604Z,98502.29
2019-03-04T02:39:51.445Z,98507.87
2019-03-04T02:43:58.322Z,98515.40
2019-03-04T02:48:05.140Z,98502.92
2019-03-04T02:52:11.943Z,98478.47
2019-03-04T02:56:18.862Z,98472.09
2019-03-04T03:00:25.806Z,98488.52
2019-03-04T03:04:32.697Z,98486.34
2019-03-04T03:08:39.544Z,98468.85
2019-03-04T03:12:47.427Z,98456.84
2019-03-04T03:16:54.403Z,98442.55
2019-03-04T03:21:01.262Z,98440.95
2019-03-04T03:25:08.767Z,98430.55
2019-03-04T03:29:15.686Z,98411.36
2019-03-04T03:33:22.509Z,98382.70
2019-03-04T03:37:29.361Z,98352.11
2019-03-04T03:41:37.994Z,98340.91
2019-03-04T03:45:44.866Z,98327.66
2019-03-04T03:49:52.755Z,98328.42
2019-03-04T03:53:59.548Z,98348.34
2019-03-04T03:58:06.377Z,98315.67
2019-03-04T04:02:13.265Z,98320.91
2019-03-04T04:06:20.157Z,98308.15
2019-03-04T04:10:27.087Z,98311.56
2019-03-04T04:14:33.869Z,98309.97
2019-03-04T04:18:40.743Z,98318.47
2019-03-04T04:22:47.652Z,98317.93
2019-03-04T04:26:54.496Z,98309.39
2019-03-04T04:31:01.329Z,98310.98
2019-03-04T04:35:08.518Z,98297.17
2019-03-04T04:39:15.354Z,98275.62
2019-03-04T04:43:22.166Z,98274.30
2019-03-04T04:47:29.079Z,98254.61
2019-03-04T04:51:35.899Z,98234.95
2019-03-04T04:55:42.723Z,98220.31
2019-03-04T04:59:49.572Z,98233.33
2019-03-04T05:03:56.492Z,98226.42
2019-03-04T05:08:03.351Z,98225.09
2019-03-04T05:12:10.197Z,98202.03
2019-03-04T05:16:17.001Z,98192.66
2019-03-04T05:20:23.982Z,98190.02
2019-03-04T05:24:30.968Z,98179.13
2019-03-04T05:28:38.972Z,98120.19
2019-03-04T05:32:45.800Z,98124.17
2019-03-04T05:36:52.667Z,98134.26
2019-03-04T05:40:59.532Z,98093.16
2019-03-04T05:45:08.087Z,98035.27
2019-03-04T05:49:25.612Z,98026.21
2019-03-04T05:53:32.524Z,98039.52
2019-03-04T05:57:39.559Z,98022.23
2019-03-04T06:02:05.389Z,98008.98
2019-03-04T06:06:12.264Z,98033.69
2019-03-04T06:10:19.171Z,98037.94
2019-03-04T06:14:26.490Z,98051.48
2019-03-04T06:18:33.373Z,98045.11
2019-03-04T06:22:40.243Z,98024.92
2019-03-04T06:26:47.107Z,98045.38
2019-03-04T06:30:53.963Z,98063.98
2019-03-04T06:35:00.872Z,98081.78
2019-03-04T06:39:09.631Z,98080.18
2019-03-04T06:43:16.693Z,98108.01
2019-03-04T06:47:23.973Z,98071.05
2019-03-04T06:51:43.449Z,98098.09
2019-03-04T06:56:07.510Z,98055.21
2019-03-04T07:00:53.341Z,98036.91
2019-03-04T07:05:53.164Z,98024.17
2019-03-04T07:10:00.003Z,97993.39
2019-03-04T07:14:07.466Z,97910.34
2019-03-04T07:18:14.384Z,97900.28
2019-03-04T07:22:21.240Z,97970.59
2019-03-04T07:26:28.085Z,97970.86
2019-03-04T07:30:34.892Z,97856.50
2019-03-04T07:34:41.792Z,97938.00
2019-03-04T07:38:58.480Z,97927.44
2019-03-04T07:43:05.486Z,97937.02
2019-03-04T07:47:12.489Z,97923.23
2019-03-04T07:51:26.322Z,97924.05
2019-03-04T07:55:33.237Z,97917.41
2019-03-04T07:59:40.079Z,97898.05
2019-03-04T08:03:52.161Z,97905.76
2019-03-04T08:07:59.013Z,97919.83
2019-03-04T08:13:02.222Z,97907.88
2019-03-04T08:17:09.179Z,97903.90
2019-03-04T08:21:17.193Z,97931.25
2019-03-04T08:25:24.068Z,97957.57
2019-03-04T08:29:33.494Z,97918.52
2019-03-04T08:33:40.394Z,97940.58
2019-03-04T08:37:47.360Z,97947.20
2019-03-04T08:41:54.412Z,97952.00
2019-03-04T08:46:01.662Z,97959.96
2019-03-04T08:50:10.104Z,97982.28
2019-03-04T08:54:18.040Z,97853.10
2019-03-04T08:58:24.902Z,97997.78
2019-03-04T09:02:31.792Z,98047.02
2019-03-04T09:06:38.817Z,98006.39
2019-03-04T09:10:45.730Z,98034.59
2019-03-04T09:14:52.749Z,98065.13
2019-03-04T09:18:59.822Z,98069.80
2019-03-04T09:23:06.813Z,98092.92
2019-03-04T09:27:13.794Z,98106.80
2019-03-04T09:31:20.887Z,98084.81
2019-03-04T09:35:27.988Z,98103.92
2019-03-04T09:39:35.064Z,98094.14
2019-03-04T09:43:42.319Z,98102.06
2019-03-04T09:47:49.243Z,98095.08
2019-03-04T09:51:56.663Z,98083.95
2019-03-04T09:56:03.556Z,98092.61
2019-03-04T10:00:38.713Z,98090.53
2019-03-04T10:05:36.282Z,98075.14
2019-03-04T10:10:29.969Z,98101.49
2019-03-04T10:15:44.030Z,98091.71
2019-03-04T10:20:36.680Z,98055.48
2019-03-04T10:25:59.712Z,98061.35
2019-03-04T10:31:07.292Z,98074.41
2019-03-04T10:36:01.576Z,98064.59
2019-03-04T10:41:08.230Z,98060.91
2019-03-04T10:45:48.315Z,98080.92
2019-03-04T10:49:55.204Z,98087.71
2019-03-04T10:54:03.180Z,98067.25
2019-03-04T10:58:10.331Z,98072.91
2019-03-04T11:02:17.234Z,98064.41
2019-03-04T11:06:24.312Z,98053.12
2019-03-04T11:10:31.548Z,98086.90
2019-03-04T11:14:38.678Z,98073.47
2019-03-04T11:18:45.647Z,98075.02
2019-03-04T11:22:52.621Z,98080.50
2019-03-04T11:26:59.548Z,98061.01
2019-03-04T11:31:06.498Z,98050.02
2019-03-04T11:35:13.701Z,98039.89
2019-03-04T11:39:47.782Z,98032.75
2019-03-04T11:43:54.599Z,98034.60
2019-03-04T11:48:01.469Z,98001.80
2019-03-04T11:52:08.445Z,98013.48
2019-03-04T11:56:15.316Z,98002.75
2019-03-04T12:00:31.754Z,97994.64
2019-03-04T12:04:40.024Z,98008.19
2019-03-04T12:08:46.892Z,97990.62
2019-03-04T12:12:53.754Z,98004.50
2019-03-04T12:17:01.726Z,97990.67
2019-03-04T12:21:09.564Z,97994.81
2019-03-04T12:25:16.709Z,97990.22
2019-03-04T12:29:23.540Z,98001.97
2019-03-04T12:33:30.479Z,98015.26
2019-03-04T12:37:37.305Z,98021.13
2019-03-04T12:41:44.169Z,98025.93
2019-03-04T12:45:53.220Z,98007.80
2019-03-04T12:50:00.330Z,98010.58
2019-03-04T12:54:10.635Z,97988.05
2019-03-04T12:58:17.538Z,97968.41
2019-03-04T13:02:25.570Z,97991.56
2019-03-04T13:06:32.582Z,98003.72
2019-03-04T13:10:39.546Z,97993.78
2019-03-04T13:14:46.671Z,97988.42
2019-03-04T13:18:53.732Z,98027.80
2019-03-04T13:23:00.951Z,98047.70
2019-03-04T13:27:08.090Z,98080.78
2019-03-04T13:31:15.270Z,98031.65
2019-03-04T13:35:24.871Z,98037.27
2019-03-04T13:39:31.837Z,98057.47
2019-03-04T13:43:38.828Z,98057.37
2019-03-04T13:47:45.824Z,98068.71
2019-03-04T13:51:52.780Z,98084.46
2019-03-04T13:55:59.722Z,98068.06
2019-03-04T14:00:11.116Z,98069.66
2019-03-04T14:04:18.030Z,98057.37
2019-03-04T14:08:24.846Z,98059.02
2019-03-04T14:12:31.701Z,98058.52
2019-03-04T14:16:38.536Z,98075.58
2019-03-04T14:20:45.436Z,98105.06
2019-03-04T14:24:52.572Z,98118.09
2019-03-04T14:28:59.359Z,98094.08
2019-03-04T14:33:06.309Z,98116.68
2019-03-04T14:37:34.225Z,98114.96
2019-03-04T14:41:41.215Z,98110.38
2019-03-04T14:45:47.996Z,98121.75
2019-03-04T14:49:55.012Z,98107.45
2019-03-04T14:54:01.895Z,98094.64
2019-03-04T14:58:08.699Z,98109.69
2019-03-04T15:02:15.687Z,98122.74
2019-03-04T15:06:22.795Z,98098.59
2019-03-04T15:10:30.049Z,98164.91
2019-03-04T15:14:37.011Z,98197.75
2019-03-04T15:18:44.016Z,98222.77
2019-03-04T15:22:51.166Z,98220.80
2019-03-04T15:26:58.083Z,98242.19
2019-03-04T15:31:05.126Z,98233.47
2019-03-04T15:35:12.115Z,98241.48
2019-03-04T15:39:22.865Z,98245.56
2019-03-04T15:43:27.646Z,98253.13
2019-03-04T15:47:36.607Z,98278.25
2019-03-04T15:51:43.016Z,98288.70
2019-03-04T15:55:49.919Z,98303.48
2019-03-04T15:59:56.839Z,98315.63
2019-03-04T16:04:04.096Z,98339.77
2019-03-04T16:08:11.028Z,98347.33
2019-03-04T16:12:20.852Z,98351.62
2019-03-04T16:16:27.761Z,98352.80
2019-03-04T16:20:35.701Z,98365.69
2019-03-04T16:24:42.618Z,98370.69
2019-03-04T16:28:49.640Z,98367.16
2019-03-04T16:32:56.614Z,98371.67
2019-03-04T16:37:08.217Z,98374.73
2019-03-04T16:41:15.137Z,98395.41
2019-03-04T16:45:22.001Z,98402.75
2019-03-04T16:49:28.894Z,98399.17
2019-03-04T16:53:35.741Z,98420.56
2019-03-04T16:57:43.829Z,98433.81
2019-03-04T17:01:50.881Z,98449.19
2019-03-04T17:05:57.793Z,98466.39
2019-03-04T17:10:06.248Z,98485.20
2019-03-04T17:14:13.245Z,98482.41
2019-03-04T17:18:21.129Z,98500.40
2019-03-04T17:22:30.471Z,98508.14
2019-03-04T17:26:37.081Z,98512.33
2019-03-04T17:30:43.918Z,98525.40
2019-03-04T17:34:50.979Z,98530.50
2019-03-04T17:38:57.986Z,98550.19
2019-03-04T17:43:05.026Z,98556.62
2019-03-04T17:47:13.157Z,98576.19
2019-03-04T17:51:20.204Z,98584.89
2019-03-04T17:55:27.187Z,98596.81
2019-03-04T17:59:34.105Z,98593.72
2019-03-04T18:03:40.963Z,98606.20
2019-03-04T18:07:48.054Z,98614.67
2019-03-04T18:11:54.945Z,98624.13
2019-03-04T18:16:01.797Z,98634.94
2019-03-04T18:20:10.817Z,98642.39
2019-03-04T18:24:18.997Z,98648.16
2019-03-04T18:29:18.273Z,98652.05
2019-03-04T18:34:19.614Z,98664.31
2019-03-04T18:39:27.366Z,98657.44
2019-03-04T18:43:59.329Z,98681.02
2019-03-04T18:48:57.348Z,98694.08
2019-03-04T18:53:07.039Z,98697.92
2019-03-04T18:57:14.178Z,98711.13
2019-03-04T19:01:21.362Z,98709.55
2019-03-04T19:05:28.470Z,98712.37
2019-03-04T19:09:35.794Z,98730.10
2019-03-04T19:13:45.212Z,98736.98
2019-03-04T19:17:52.243Z,98730.21
2019-03-04T19:21:59.225Z,98740.34
2019-03-04T19:26:06.710Z,98750.49
2019-03-04T19:30:14.392Z,98748.96
2019-03-04T19:34:21.860Z,98766.69
2019-03-04T19:38:28.848Z,98778.45
2019-03-04T19:42:35.972Z,98773.71
2019-03-04T19:46:42.991Z,98770.69
2019-03-04T19:50:50.290Z,98787.58
2019-03-04T19:54:57.425Z,98782.63
2019-03-04T19:59:04.635Z,98802.03
2019-03-04T20:03:11.701Z,98803.96
2019-03-04T20:07:18.742Z,98799.42
2019-03-04T20:11:25.974Z,98801.95
2019-03-04T20:15:33.072Z,98797.00
2019-03-04T20:19:40.123Z,98805.52
2019-03-04T20:23:47.085Z,98790.31
2019-03-04T20:27:54.066Z,98800.12
2019-03-04T20:32:01.173Z,98804.20
2019-03-04T20:36:09.145Z,98812.98
2019-03-04T20:40:18.084Z,98805.91
2019-03-04T20:44:25.102Z,98809.66
2019-03-04T20:48:32.113Z,98813.61
2019-03-04T20:52:41.556Z,98807.94
2019-03-04T20:56:47.659Z,98813.50
2019-03-04T21:00:55.257Z,98808.44
2019-03-04T21:05:02.092Z,98801.56
2019-03-04T21:09:11.126Z,98810.18
2019-03-04T21:13:35.147Z,98799.23
2019-03-04T21:17:34.438Z,98810.77
2019-03-04T21:21:41.521Z,98813.32
2019-03-04T21:26:03.014Z,98827.88
2019-03-04T21:31:00.422Z,98828.98
2019-03-04T21:36:18.551Z,98826.98
2019-03-04T21:40:36.449Z,98841.24
2019-03-04T21:46:01.681Z,98844.39
2019-03-04T21:50:12.418Z,98848.20
2019-03-04T21:54:19.736Z,98842.97
2019-03-04T21:58:28.253Z,98849.42
2019-03-04T22:03:08.222Z,98856.22
2019-03-04T22:07:16.634Z,98856.13
2019-03-04T22:11:25.143Z,98871.70
2019-03-04T22:15:32.109Z,98868.86
2019-03-04T22:19:41.550Z,98873.11
2019-03-04T22:23:48.566Z,98873.23
2019-03-04T22:27:56.397Z,98887.48
2019-03-04T22:32:03.406Z,98875.55
2019-03-04T22:36:14.246Z,98883.45
2019-03-04T22:40:22.014Z,98878.27
2019-03-04T22:44:31.629Z,98874.72
2019-03-04T22:48:42.151Z,98870.27
2019-03-04T22:52:49.257Z,98874.54
2019-03-04T22:56:57.894Z,98875.64
2019-03-04T23:01:36.683Z,98883.34
2019-03-04T23:05:43.582Z,98897.22
2019-03-04T23:10:35.282Z,98893.14
2019-03-04T23:14:53.460Z,98916.24
2019-03-04T23:19:00.462Z,98939.72
2019-03-04T23:23:07.327Z,98944.59
2019-03-04T23:27:14.353Z,98951.27
2019-03-04T23:31:21.409Z,98956.23
2019-03-04T23:35:28.385Z,98969.59
2019-03-04T23:39:35.271Z,98960.80
2019-03-04T23:43:42.623Z,98966.97
2019-03-04T23:47:49.524Z,98950.88
2019-03-04T23:51:56.345Z,98961.20
2019-03-04T23:56:03.202Z,98955.42
